createdAt,value
2023-05-18T00:01:00.465Z,6.83
2023-05-18T00:03:28.539Z,6.88
2023-05-18T00:06:07.114Z,6.91
2023-05-18T00:08:38.507Z,7.04
2023-05-18T00:11:08.599Z,7.11
2023-05-18T00:13:38.483Z,7.23
2023-05-18T00:16:08.522Z,7.33
2023-05-18T00:18:36.633Z,7.29
2023-05-18T00:21:06.466Z,7.27
2023-05-18T00:23:33.801Z,7.23
2023-05-18T00:26:03.392Z,7.15
2023-05-18T00:28:31.442Z,7.08
2023-05-18T00:31:01.351Z,6.97
2023-05-18T00:33:29.653Z,6.92
2023-05-18T00:35:59.880Z,6.91
2023-05-18T00:38:29.773Z,6.89
2023-05-18T00:40:59.739Z,6.94
2023-05-18T00:43:29.581Z,6.94
2023-05-18T00:45:59.527Z,6.94
2023-05-18T00:48:29.595Z,6.90
2023-05-18T00:50:59.580Z,6.86
2023-05-18T00:53:30.038Z,6.91
2023-05-18T00:56:00.149Z,6.92
2023-05-18T00:58:31.405Z,6.94
2023-05-18T01:01:02.820Z,6.89
2023-05-18T01:03:39.885Z,6.88
2023-05-18T01:06:10.484Z,6.87
2023-05-18T01:08:38.831Z,6.86
2023-05-18T01:11:24.993Z,6.83
2023-05-18T01:14:09.727Z,6.90
2023-05-18T01:16:51.144Z,6.91
2023-05-18T01:19:52.125Z,6.90
2023-05-18T01:22:29.570Z,6.90
2023-05-18T01:25:29.949Z,6.88
2023-05-18T01:28:06.291Z,6.87
2023-05-18T01:30:42.065Z,6.81
2023-05-18T01:33:14.134Z,6.84
2023-05-18T01:35:48.386Z,6.83
2023-05-18T01:38:23.675Z,6.79
2023-05-18T01:41:22.407Z,6.85
2023-05-18T01:44:33.041Z,6.87
2023-05-18T01:47:17.583Z,6.83
2023-05-18T01:49:58.417Z,6.78
2023-05-18T01:52:53.093Z,6.85
2023-05-18T01:55:26.492Z,6.92
2023-05-18T01:58:00.567Z,6.96
2023-05-18T02:00:30.865Z,6.96
2023-05-18T02:03:01.231Z,6.97
2023-05-18T02:05:31.555Z,6.96
2023-05-18T02:08:01.648Z,7.01
2023-05-18T02:10:31.460Z,7.04
2023-05-18T02:13:01.946Z,7.07
2023-05-18T02:15:31.987Z,7.09
2023-05-18T02:18:02.992Z,7.07
2023-05-18T02:20:33.726Z,7.02
2023-05-18T02:23:04.076Z,6.99
2023-05-18T02:25:34.001Z,6.94
2023-05-18T02:28:04.045Z,6.90
2023-05-18T02:30:34.551Z,6.90
2023-05-18T02:33:04.827Z,6.82
2023-05-18T02:35:35.897Z,6.81
2023-05-18T02:38:04.736Z,6.82
2023-05-18T02:40:31.785Z,6.74
2023-05-18T02:43:00.381Z,6.65
2023-05-18T02:45:28.877Z,6.61
2023-05-18T02:47:57.305Z,6.58
2023-05-18T02:50:25.848Z,6.54
2023-05-18T02:52:55.792Z,6.51
2023-05-18T02:55:22.757Z,6.45
2023-05-18T02:57:57.106Z,6.43
2023-05-18T03:00:29.532Z,6.36
2023-05-18T03:03:00.536Z,6.31
2023-05-18T03:05:30.722Z,6.27
2023-05-18T03:08:02.397Z,6.30
2023-05-18T03:10:32.490Z,6.26
2023-05-18T03:13:02.939Z,6.22
2023-05-18T03:15:32.929Z,6.22
2023-05-18T03:18:02.870Z,6.19
2023-05-18T03:20:33.325Z,6.18
2023-05-18T03:23:01.766Z,6.19
2023-05-18T03:25:32.928Z,6.25
2023-05-18T03:28:04.974Z,6.27
2023-05-18T03:30:35.734Z,6.26
2023-05-18T03:33:03.750Z,6.25
2023-05-18T03:35:32.795Z,6.24
2023-05-18T03:38:01.378Z,6.26
2023-05-18T03:40:31.603Z,6.25
2023-05-18T03:43:00.483Z,6.24
2023-05-18T03:45:30.847Z,6.20
2023-05-18T03:47:59.467Z,6.15
2023-05-18T03:50:29.494Z,6.14
2023-05-18T03:52:58.319Z,6.12
2023-05-18T03:55:28.000Z,6.10
2023-05-18T03:57:59.204Z,6.10
2023-05-18T04:00:29.016Z,6.13
2023-05-18T04:02:57.845Z,6.10
2023-05-18T04:05:26.050Z,6.10
2023-05-18T04:07:57.376Z,6.11
2023-05-18T04:10:26.551Z,6.11
2023-05-18T04:12:55.393Z,6.14
2023-05-18T04:15:25.717Z,6.21
2023-05-18T04:17:54.286Z,6.27
2023-05-18T04:20:23.849Z,6.38
2023-05-18T04:22:52.488Z,6.49
2023-05-18T04:25:22.437Z,6.62
2023-05-18T04:27:51.627Z,6.84
2023-05-18T04:30:23.390Z,7.05
2023-05-18T04:32:54.653Z,7.24
2023-05-18T04:35:28.011Z,7.37
2023-05-18T04:37:56.378Z,7.40
2023-05-18T04:40:25.415Z,7.42
2023-05-18T04:42:53.655Z,7.48
2023-05-18T04:45:26.122Z,7.48
2023-05-18T04:47:54.841Z,7.56
2023-05-18T04:50:24.104Z,7.65
2023-05-18T04:52:53.356Z,7.71
2023-05-18T04:55:28.620Z,7.82
2023-05-18T04:57:57.658Z,7.90
2023-05-18T05:00:29.366Z,7.96
2023-05-18T05:02:59.865Z,8.09
2023-05-18T05:05:27.738Z,8.09
2023-05-18T05:07:56.396Z,8.04
2023-05-18T05:10:24.892Z,8.16
2023-05-18T05:12:52.779Z,8.24
2023-05-18T05:15:21.497Z,8.35
2023-05-18T05:17:51.654Z,8.50
2023-05-18T05:20:21.912Z,8.63
2023-05-18T05:22:51.683Z,8.68
2023-05-18T05:25:21.866Z,8.70
2023-05-18T05:27:51.633Z,8.79
2023-05-18T05:30:21.692Z,8.82
2023-05-18T05:32:51.715Z,8.98
2023-05-18T05:35:21.962Z,9.02
2023-05-18T05:37:51.780Z,9.08
2023-05-18T05:40:21.904Z,9.22
2023-05-18T05:42:51.862Z,9.33
2023-05-18T05:45:21.928Z,9.51
2023-05-18T05:47:52.054Z,9.63
2023-05-18T05:50:22.326Z,9.58
2023-05-18T05:52:52.212Z,9.71
2023-05-18T05:55:22.795Z,10.08
2023-05-18T05:57:52.603Z,10.16
2023-05-18T06:00:24.534Z,10.34
2023-05-18T06:02:53.545Z,10.55
2023-05-18T06:05:23.495Z,10.78
2023-05-18T06:07:53.694Z,10.98
2023-05-18T06:10:23.946Z,11.02
2023-05-18T06:12:53.691Z,11.15
2023-05-18T06:15:23.776Z,11.36
2023-05-18T06:17:53.738Z,11.82
2023-05-18T06:20:23.723Z,11.96
2023-05-18T06:22:53.577Z,11.87
2023-05-18T06:25:24.330Z,11.54
2023-05-18T06:27:53.593Z,11.84
2023-05-18T06:30:23.510Z,11.71
2023-05-18T06:32:53.487Z,12.11
2023-05-18T06:35:24.256Z,12.50
2023-05-18T06:37:53.961Z,12.72
2023-05-18T06:40:23.798Z,12.66
2023-05-18T06:42:53.597Z,12.24
2023-05-18T06:45:23.470Z,12.26
2023-05-18T06:47:52.100Z,12.55
2023-05-18T06:50:20.704Z,13.09
2023-05-18T06:52:49.360Z,13.52
2023-05-18T06:55:18.151Z,13.63
2023-05-18T06:57:46.748Z,13.63
2023-05-18T07:00:15.460Z,13.87
2023-05-18T07:02:44.384Z,13.37
2023-05-18T07:05:11.451Z,13.82
2023-05-18T07:07:40.194Z,13.56
2023-05-18T07:10:09.163Z,13.48
2023-05-18T07:12:36.841Z,13.78
2023-05-18T07:15:06.207Z,13.98
2023-05-18T07:17:33.937Z,13.72
2023-05-18T07:20:02.199Z,13.90
2023-05-18T07:22:30.705Z,14.50
2023-05-18T07:25:00.784Z,14.79
2023-05-18T07:27:30.665Z,14.59
2023-05-18T07:29:59.107Z,13.23
2023-05-18T07:32:27.686Z,13.10
2023-05-18T07:34:56.089Z,13.96
2023-05-18T07:37:24.507Z,14.21
2023-05-18T07:39:53.033Z,14.75
2023-05-18T07:42:21.681Z,14.13
2023-05-18T07:44:50.469Z,13.22
2023-05-18T07:47:21.338Z,13.85
2023-05-18T07:49:51.205Z,14.62
2023-05-18T07:52:21.066Z,14.46
2023-05-18T07:54:51.067Z,14.74
2023-05-18T07:57:21.211Z,14.87
2023-05-18T07:59:51.329Z,14.46
2023-05-18T08:02:21.254Z,13.99
2023-05-18T08:04:51.961Z,13.63
2023-05-18T08:07:21.868Z,14.32
2023-05-18T08:09:52.090Z,14.07
2023-05-18T08:12:23.164Z,13.34
2023-05-18T08:14:53.037Z,12.99
2023-05-18T08:17:22.844Z,12.95
2023-05-18T08:19:53.921Z,13.10
2023-05-18T08:22:23.816Z,13.24
2023-05-18T08:24:54.588Z,13.08
2023-05-18T08:27:24.420Z,13.70
2023-05-18T08:29:54.253Z,14.75
2023-05-18T08:32:24.225Z,14.79
2023-05-18T08:34:54.359Z,14.79
2023-05-18T08:37:29.504Z,14.93
2023-05-18T08:40:02.971Z,15.28
2023-05-18T08:45:23.747Z,15.85
2023-05-18T08:47:51.628Z,15.38
2023-05-18T08:50:24.406Z,15.54
2023-05-18T08:52:58.676Z,15.43
2023-05-18T08:55:30.182Z,15.75
2023-05-18T08:58:01.444Z,15.64
2023-05-18T09:00:29.974Z,16.05
2023-05-18T09:03:02.716Z,15.37
2023-05-18T09:05:31.896Z,15.48
2023-05-18T09:08:03.517Z,14.65
2023-05-18T09:10:34.082Z,15.23
2023-05-18T09:13:05.974Z,14.66
2023-05-18T09:15:35.542Z,15.48
2023-05-18T09:18:05.204Z,15.88
2023-05-18T09:20:35.214Z,15.23
2023-05-18T09:23:05.864Z,15.08
2023-05-18T09:25:46.397Z,14.48
2023-05-18T09:28:41.886Z,14.52
2023-05-18T09:31:18.078Z,14.75
2023-05-18T09:33:50.511Z,15.33
2023-05-18T09:36:26.208Z,15.48
2023-05-18T09:38:55.859Z,15.59
2023-05-18T09:41:28.075Z,14.88
2023-05-18T09:43:56.217Z,14.64
2023-05-18T09:46:25.318Z,14.13
2023-05-18T09:48:55.376Z,13.91
2023-05-18T09:51:25.391Z,13.93
2023-05-18T09:53:56.741Z,13.87
2023-05-18T09:56:27.472Z,13.84
2023-05-18T09:59:09.599Z,14.12
2023-05-18T10:02:05.778Z,14.17
2023-05-18T10:04:43.965Z,14.03
2023-05-18T10:07:17.326Z,14.82
2023-05-18T10:09:47.280Z,15.27
2023-05-18T10:12:21.274Z,15.60
2023-05-18T10:14:51.128Z,15.56
2023-05-18T10:17:25.678Z,15.25
2023-05-18T10:19:58.103Z,15.17
2023-05-18T10:22:28.672Z,15.09
2023-05-18T10:25:01.296Z,14.67
2023-05-18T10:27:36.580Z,14.45
2023-05-18T10:30:10.443Z,14.52
2023-05-18T10:32:41.283Z,15.08
2023-05-18T10:35:13.339Z,14.50
2023-05-18T10:37:50.363Z,14.63
2023-05-18T10:40:21.174Z,14.63
2023-05-18T10:42:53.737Z,15.04
2023-05-18T10:45:25.094Z,14.74
2023-05-18T10:47:59.642Z,14.38
2023-05-18T10:50:32.218Z,14.23
2023-05-18T10:53:05.799Z,14.30
2023-05-18T10:55:36.410Z,14.66
2023-05-18T10:58:14.308Z,14.89
2023-05-18T11:00:51.262Z,15.56
2023-05-18T11:03:22.447Z,15.59
2023-05-18T11:06:10.194Z,15.50
2023-05-18T11:08:46.758Z,14.95
2023-05-18T11:11:19.363Z,15.14
2023-05-18T11:13:51.767Z,14.88
2023-05-18T11:16:35.161Z,15.39
2023-05-18T11:19:12.684Z,15.05
2023-05-18T11:21:42.709Z,15.10
2023-05-18T11:24:21.762Z,15.64
2023-05-18T11:26:56.897Z,16.38
2023-05-18T11:29:40.780Z,16.23
2023-05-18T11:32:32.998Z,14.63
2023-05-18T11:35:05.863Z,14.60
2023-05-18T11:37:38.657Z,14.95
2023-05-18T11:40:48.039Z,15.43
2023-05-18T11:43:25.536Z,15.76
2023-05-18T11:45:59.388Z,16.01
2023-05-18T11:48:33.323Z,16.28
2023-05-18T11:51:08.073Z,16.31
2023-05-18T11:53:38.376Z,15.85
2023-05-18T11:56:13.050Z,15.97
2023-05-18T11:58:42.926Z,15.89
2023-05-18T12:01:14.502Z,15.80
2023-05-18T12:03:47.653Z,15.67
2023-05-18T12:06:44.782Z,15.47
2023-05-18T12:09:15.623Z,15.28
2023-05-18T12:11:43.770Z,15.40
2023-05-18T12:14:13.853Z,15.43
2023-05-18T12:16:44.768Z,15.57
2023-05-18T12:19:15.550Z,15.89
2023-05-18T12:21:47.050Z,16.14
2023-05-18T12:24:17.034Z,16.12
2023-05-18T12:26:46.747Z,16.30
2023-05-18T12:29:19.958Z,16.29
2023-05-18T12:31:49.808Z,16.37
2023-05-18T12:34:19.689Z,16.52
2023-05-18T12:36:54.487Z,16.21
2023-05-18T12:39:28.497Z,15.85
2023-05-18T12:42:18.819Z,15.71
2023-05-18T12:44:50.785Z,15.60
2023-05-18T12:47:20.765Z,15.47
2023-05-18T12:49:51.117Z,15.59
2023-05-18T12:52:21.914Z,15.74
2023-05-18T12:54:59.948Z,16.11
2023-05-18T12:57:31.280Z,15.91
2023-05-18T13:00:01.496Z,15.39
2023-05-18T13:02:38.507Z,15.10
2023-05-18T13:05:11.889Z,14.68
2023-05-18T13:07:45.445Z,15.25
2023-05-18T13:10:20.506Z,15.56
2023-05-18T13:12:52.664Z,15.82
2023-05-18T13:15:24.477Z,15.93
2023-05-18T13:18:09.708Z,16.03
2023-05-18T13:21:00.015Z,15.93
2023-05-18T13:23:30.370Z,15.93
2023-05-18T13:25:58.970Z,15.97
2023-05-18T13:28:27.532Z,16.03
2023-05-18T13:30:55.522Z,15.66
2023-05-18T13:33:23.812Z,16.02
2023-05-18T13:35:52.357Z,16.16
2023-05-18T13:38:21.369Z,16.25
2023-05-18T13:40:49.221Z,16.07
2023-05-18T13:43:17.640Z,15.88
2023-05-18T13:45:46.174Z,15.59
2023-05-18T13:48:15.145Z,16.11
2023-05-18T13:50:43.039Z,16.13
2023-05-18T13:53:11.462Z,16.01
2023-05-18T13:55:40.573Z,16.25
2023-05-18T13:58:09.711Z,16.35
2023-05-18T14:00:36.972Z,16.58
2023-05-18T14:03:05.315Z,16.20
2023-05-18T14:05:33.778Z,15.77
2023-05-18T14:08:02.068Z,16.31
2023-05-18T14:10:30.827Z,16.81
2023-05-18T14:12:58.929Z,16.75
2023-05-18T14:15:27.293Z,16.32
2023-05-18T14:17:55.863Z,16.43
2023-05-18T14:20:24.249Z,17.02
2023-05-18T14:22:53.178Z,17.44
2023-05-18T14:25:20.959Z,17.13
2023-05-18T14:27:49.433Z,17.36
2023-05-18T14:30:17.976Z,17.67
2023-05-18T14:32:46.424Z,17.93
2023-05-18T14:35:15.311Z,17.57
2023-05-18T14:37:45.212Z,16.88
2023-05-18T14:40:13.618Z,16.53
2023-05-18T14:42:43.558Z,16.82
2023-05-18T14:45:12.049Z,16.62
2023-05-18T14:47:40.554Z,16.79
2023-05-18T14:52:27.860Z,16.76
2023-05-18T14:54:57.778Z,16.73
2023-05-18T14:57:27.736Z,16.84
2023-05-18T14:59:58.523Z,16.54
2023-05-18T15:02:26.330Z,16.48
2023-05-18T15:04:54.585Z,16.60
2023-05-18T15:07:23.056Z,16.61
2023-05-18T15:09:51.642Z,16.49
2023-05-18T15:12:21.380Z,16.54
2023-05-18T15:14:48.348Z,16.53
2023-05-18T15:17:18.135Z,16.77
2023-05-18T15:19:47.059Z,17.26
2023-05-18T15:22:14.025Z,16.96
2023-05-18T15:24:42.655Z,16.96
2023-05-18T15:27:12.285Z,16.46
2023-05-18T15:29:39.679Z,16.61
2023-05-18T15:32:08.330Z,16.56
2023-05-18T15:34:36.561Z,16.61
2023-05-18T15:37:05.249Z,15.99
2023-05-18T15:39:33.535Z,15.95
2023-05-18T15:42:01.901Z,15.98
2023-05-18T15:44:31.357Z,15.96
2023-05-18T15:46:58.792Z,15.94
2023-05-18T15:49:27.397Z,15.93
2023-05-18T15:51:55.723Z,16.03
2023-05-18T15:54:24.112Z,16.24
2023-05-18T15:56:52.593Z,16.09
2023-05-18T15:59:21.312Z,16.16
2023-05-18T16:01:49.676Z,16.10
2023-05-18T16:04:18.047Z,16.06
2023-05-18T16:06:45.397Z,16.12
2023-05-18T16:09:15.243Z,16.18
2023-05-18T16:11:43.466Z,16.13
2023-05-18T16:14:12.017Z,16.40
2023-05-18T16:16:40.500Z,16.50
2023-05-18T16:19:08.909Z,16.14
2023-05-18T16:21:37.244Z,16.11
2023-05-18T16:24:07.066Z,16.33
2023-05-18T16:26:34.760Z,16.35
2023-05-18T16:29:05.987Z,16.13
2023-05-18T16:31:35.446Z,16.07
2023-05-18T16:34:04.549Z,15.82
2023-05-18T16:36:34.521Z,15.54
2023-05-18T16:39:03.689Z,15.60
2023-05-18T16:41:31.855Z,15.42
2023-05-18T16:44:01.755Z,15.29
2023-05-18T16:46:31.722Z,15.34
2023-05-18T16:49:01.695Z,15.29
2023-05-18T16:51:31.957Z,15.43
2023-05-18T16:54:01.880Z,15.43
2023-05-18T16:56:31.996Z,15.36
2023-05-18T16:59:03.077Z,15.33
2023-05-18T17:01:33.203Z,15.32
2023-05-18T17:04:03.004Z,15.41
2023-05-18T17:06:31.090Z,15.42
2023-05-18T17:08:58.888Z,15.27
2023-05-18T17:11:27.732Z,15.12
2023-05-18T17:13:59.782Z,15.04
2023-05-18T17:16:28.591Z,14.97
2023-05-18T17:18:56.211Z,14.93
2023-05-18T17:21:28.342Z,14.93
2023-05-18T17:23:57.251Z,14.90
2023-05-18T17:26:30.543Z,14.80
2023-05-18T17:28:59.819Z,14.72
2023-05-18T17:31:30.522Z,14.68
2023-05-18T17:34:00.430Z,14.86
2023-05-18T17:36:31.095Z,15.00
2023-05-18T17:39:01.053Z,15.02
2023-05-18T17:41:31.018Z,15.06
2023-05-18T17:44:00.934Z,14.98
2023-05-18T17:46:31.158Z,15.02
2023-05-18T17:49:02.071Z,14.96
2023-05-18T17:51:31.665Z,14.95
2023-05-18T17:53:59.129Z,14.94
2023-05-18T17:56:28.191Z,14.90
2023-05-18T17:58:58.666Z,14.97
2023-05-18T18:01:30.049Z,14.92
2023-05-18T18:03:58.037Z,14.99
2023-05-18T18:06:26.284Z,15.04
2023-05-18T18:08:58.555Z,15.05
2023-05-18T18:11:28.330Z,14.95
2023-05-18T18:13:57.579Z,14.85
2023-05-18T18:16:27.592Z,14.74
2023-05-18T18:18:58.269Z,14.67
2023-05-18T18:21:28.218Z,14.65
2023-05-18T18:23:58.050Z,14.62
2023-05-18T18:26:27.969Z,14.50
2023-05-18T18:28:58.133Z,14.37
2023-05-18T18:31:27.932Z,14.26
2023-05-18T18:33:58.000Z,14.15
2023-05-18T18:36:28.138Z,14.06
2023-05-18T18:38:58.019Z,13.99
2023-05-18T18:41:27.917Z,13.92
2023-05-18T18:43:57.833Z,13.81
2023-05-18T18:46:27.820Z,13.66
2023-05-18T18:48:57.644Z,13.56
2023-05-18T18:51:27.461Z,13.47
2023-05-18T18:53:57.211Z,13.38
2023-05-18T18:56:27.562Z,13.29
2023-05-18T18:58:57.498Z,13.19
2023-05-18T19:01:27.354Z,13.10
2023-05-18T19:03:57.353Z,12.99
2023-05-18T19:06:27.370Z,12.92
2023-05-18T19:08:57.144Z,12.83
2023-05-18T19:11:27.045Z,12.77
2023-05-18T19:13:56.871Z,12.71
2023-05-18T19:16:27.259Z,12.65
2023-05-18T19:18:56.887Z,12.56
2023-05-18T19:21:26.825Z,12.49
2023-05-18T19:23:57.776Z,12.40
2023-05-18T19:26:30.726Z,12.29
2023-05-18T19:28:59.708Z,12.17
2023-05-18T19:31:31.697Z,12.11
2023-05-18T19:34:01.591Z,12.06
2023-05-18T19:36:31.508Z,11.95
2023-05-18T19:39:01.462Z,11.88
2023-05-18T19:41:31.453Z,11.83
2023-05-18T19:44:01.432Z,11.77
2023-05-18T19:46:31.626Z,11.69
2023-05-18T19:49:01.497Z,11.63
2023-05-18T19:51:32.054Z,11.54
2023-05-18T19:54:02.824Z,11.43
2023-05-18T19:56:34.254Z,11.38
2023-05-18T19:59:04.142Z,11.32
2023-05-18T20:01:34.105Z,11.25
2023-05-18T20:04:04.306Z,11.17
2023-05-18T20:06:34.185Z,11.13
2023-05-18T20:09:04.556Z,11.07
2023-05-18T20:11:32.431Z,10.98
2023-05-18T20:14:03.174Z,10.87
2023-05-18T20:16:33.942Z,10.79
2023-05-18T20:19:03.355Z,10.73
2023-05-18T20:21:31.889Z,10.68
2023-05-18T20:23:59.896Z,10.59
2023-05-18T20:26:29.239Z,10.54
2023-05-18T20:28:59.005Z,10.46
2023-05-18T20:31:27.767Z,10.34
2023-05-18T20:33:57.895Z,10.70
2023-05-18T20:36:26.804Z,11.09
2023-05-18T20:38:56.738Z,11.30
2023-05-18T20:41:28.466Z,11.26
2023-05-18T20:43:57.267Z,11.29
2023-05-18T20:46:27.592Z,11.28
2023-05-18T20:48:57.844Z,11.30
2023-05-18T20:51:28.214Z,11.19
2023-05-18T20:53:58.988Z,11.20
2023-05-18T20:56:29.539Z,11.19
2023-05-18T20:58:59.338Z,11.12
2023-05-18T21:01:29.576Z,11.08
2023-05-18T21:03:59.546Z,10.98
2023-05-18T21:06:29.531Z,10.97
2023-05-18T21:08:59.420Z,11.01
2023-05-18T21:11:30.942Z,10.94
2023-05-18T21:13:59.997Z,10.90
2023-05-18T21:16:29.958Z,10.83
2023-05-18T21:18:59.950Z,10.75
2023-05-18T21:21:29.886Z,10.69
2023-05-18T21:24:01.180Z,10.68
2023-05-18T21:26:29.590Z,10.68
2023-05-18T21:28:59.542Z,10.63
2023-05-18T21:31:29.525Z,10.55
2023-05-18T21:33:57.814Z,10.53
2023-05-18T21:36:34.319Z,10.50
2023-05-18T21:39:08.417Z,10.48
2023-05-18T21:41:40.309Z,10.45
2023-05-18T21:44:09.410Z,10.33
2023-05-18T21:46:38.710Z,10.23
2023-05-18T21:49:09.131Z,10.23
2023-05-18T21:51:38.901Z,10.23
2023-05-18T21:54:08.693Z,10.17
2023-05-18T21:56:38.392Z,10.10
2023-05-18T21:59:08.258Z,9.98
2023-05-18T22:01:38.080Z,9.98
2023-05-18T22:04:07.977Z,9.91
2023-05-18T22:06:37.790Z,9.90
2023-05-18T22:09:07.867Z,9.89
2023-05-18T22:11:37.732Z,9.84
2023-05-18T22:14:07.667Z,9.85
2023-05-18T22:16:37.470Z,9.79
2023-05-18T22:19:07.364Z,9.74
2023-05-18T22:21:37.256Z,9.67
2023-05-18T22:24:07.199Z,9.61
2023-05-18T22:26:37.097Z,9.51
2023-05-18T22:29:06.931Z,9.50
2023-05-18T22:31:36.916Z,9.44
2023-05-18T22:34:06.801Z,9.45
2023-05-18T22:36:36.933Z,9.41
2023-05-18T22:39:06.771Z,9.36
2023-05-18T22:41:36.639Z,9.30
2023-05-18T22:44:06.622Z,9.27
2023-05-18T22:46:38.136Z,9.28
2023-05-18T22:49:06.754Z,9.24
2023-05-18T22:51:36.562Z,9.17
2023-05-18T22:54:06.595Z,9.16
2023-05-18T22:56:36.391Z,9.14
2023-05-18T22:59:07.186Z,9.09
2023-05-18T23:01:37.776Z,9.06
2023-05-18T23:04:07.433Z,9.07
2023-05-18T23:06:37.352Z,9.01
2023-05-18T23:09:07.289Z,8.97
2023-05-18T23:11:37.094Z,8.91
2023-05-18T23:14:11.099Z,8.85
2023-05-18T23:16:43.048Z,8.82
2023-05-18T23:19:13.790Z,8.83
2023-05-18T23:21:42.644Z,8.84
2023-05-18T23:24:14.455Z,8.86
2023-05-18T23:26:45.446Z,8.85
2023-05-18T23:29:14.628Z,8.79
2023-05-18T23:31:44.503Z,8.73
2023-05-18T23:34:15.448Z,8.71
2023-05-18T23:36:45.585Z,8.70
2023-05-18T23:39:15.155Z,8.68
2023-05-18T23:41:46.227Z,8.60
2023-05-18T23:44:16.026Z,8.59
2023-05-18T23:46:46.459Z,8.52
2023-05-18T23:49:16.828Z,8.52
2023-05-18T23:51:51.465Z,8.52
2023-05-18T23:54:21.963Z,8.49
2023-05-18T23:56:51.937Z,8.42
2023-05-18T23:59:22.262Z,8.37
